sensor_id;sensor_type;location;lat;lon;timestamp;pressure;altitude;pressure_sealevel;temperature;humidity
52653;BME280;39353;42.864;12.014;2023-06-14T00:00:53;96977.79;;;25.92;53.80
52653;BME280;39353;42.864;12.014;2023-06-14T00:03:47;96979.00;;;25.92;53.89
52653;BME280;39353;42.864;12.014;2023-06-14T00:06:18;96981.92;;;25.92;53.67
52653;BME280;39353;42.864;12.014;2023-06-14T00:08:48;96978.85;;;25.92;53.67
52653;BME280;39353;42.864;12.014;2023-06-14T00:11:35;96975.02;;;25.92;53.78
52653;BME280;39353;42.864;12.014;2023-06-14T00:14:19;96973.77;;;25.91;53.87
52653;BME280;39353;42.864;12.014;2023-06-14T00:17:01;96974.77;;;25.91;53.80
52653;BME280;39353;42.864;12.014;2023-06-14T00:19:43;96980.77;;;25.91;53.72
52653;BME280;39353;42.864;12.014;2023-06-14T00:22:28;96982.91;;;25.92;53.79
52653;BME280;39353;42.864;12.014;2023-06-14T00:25:09;96983.95;;;25.91;53.73
52653;BME280;39353;42.864;12.014;2023-06-14T00:27:56;96981.86;;;25.91;53.86
52653;BME280;39353;42.864;12.014;2023-06-14T00:30:27;96983.58;;;25.91;53.90
52653;BME280;39353;42.864;12.014;2023-06-14T00:33:00;96986.15;;;25.91;53.85
52653;BME280;39353;42.864;12.014;2023-06-14T00:35:41;96982.81;;;25.91;53.82
52653;BME280;39353;42.864;12.014;2023-06-14T00:38:15;96984.35;;;25.92;53.82
52653;BME280;39353;42.864;12.014;2023-06-14T00:40:49;96981.69;;;25.91;53.90
52653;BME280;39353;42.864;12.014;2023-06-14T00:43:31;96981.09;;;25.90;53.91
52653;BME280;39353;42.864;12.014;2023-06-14T00:46:19;96986.48;;;25.91;53.97
52653;BME280;39353;42.864;12.014;2023-06-14T00:48:47;96989.00;;;25.90;53.90
52653;BME280;39353;42.864;12.014;2023-06-14T00:51:29;96989.77;;;25.90;53.90
52653;BME280;39353;42.864;12.014;2023-06-14T00:54:00;96985.38;;;25.90;54.07
52653;BME280;39353;42.864;12.014;2023-06-14T00:56:31;96986.98;;;25.89;53.95
52653;BME280;39353;42.864;12.014;2023-06-14T00:59:00;96988.46;;;25.89;53.95
52653;BME280;39353;42.864;12.014;2023-06-14T01:01:30;96984.15;;;25.89;53.96
52653;BME280;39353;42.864;12.014;2023-06-14T01:04:02;96980.15;;;25.88;53.87
52653;BME280;39353;42.864;12.014;2023-06-14T01:07:22;96978.51;;;25.89;53.96
52653;BME280;39353;42.864;12.014;2023-06-14T01:10:20;96973.23;;;25.89;54.00
52653;BME280;39353;42.864;12.014;2023-06-14T01:13:23;96975.48;;;25.89;53.92
52653;BME280;39353;42.864;12.014;2023-06-14T01:15:56;96973.39;;;25.88;53.94
52653;BME280;39353;42.864;12.014;2023-06-14T01:18:38;96977.73;;;25.89;54.11
52653;BME280;39353;42.864;12.014;2023-06-14T01:21:06;96973.67;;;25.89;53.95
52653;BME280;39353;42.864;12.014;2023-06-14T01:23:49;96974.16;;;25.88;53.97
52653;BME280;39353;42.864;12.014;2023-06-14T01:26:25;96971.36;;;25.88;54.01
52653;BME280;39353;42.864;12.014;2023-06-14T01:29:11;96972.67;;;25.88;54.00
52653;BME280;39353;42.864;12.014;2023-06-14T01:32:00;96968.39;;;25.87;54.17
52653;BME280;39353;42.864;12.014;2023-06-14T01:34:45;96965.41;;;25.88;53.99
52653;BME280;39353;42.864;12.014;2023-06-14T01:37:26;96963.55;;;25.87;53.96
52653;BME280;39353;42.864;12.014;2023-06-14T01:40:17;96962.34;;;25.87;54.06
52653;BME280;39353;42.864;12.014;2023-06-14T01:43:03;96962.83;;;25.88;54.03
52653;BME280;39353;42.864;12.014;2023-06-14T01:45:34;96960.52;;;25.87;54.02
52653;BME280;39353;42.864;12.014;2023-06-14T01:48:07;96956.23;;;25.87;54.10
52653;BME280;39353;42.864;12.014;2023-06-14T01:50:49;96950.46;;;25.86;54.10
52653;BME280;39353;42.864;12.014;2023-06-14T01:53:20;96944.42;;;25.85;54.17
52653;BME280;39353;42.864;12.014;2023-06-14T01:56:00;96942.98;;;25.85;54.19
52653;BME280;39353;42.864;12.014;2023-06-14T01:58:32;96945.89;;;25.84;54.07
52653;BME280;39353;42.864;12.014;2023-06-14T02:01:00;96941.61;;;25.85;54.09
52653;BME280;39353;42.864;12.014;2023-06-14T02:03:31;96934.62;;;25.84;54.22
52653;BME280;39353;42.864;12.014;2023-06-14T02:06:15;96930.06;;;25.84;54.03
52653;BME280;39353;42.864;12.014;2023-06-14T02:09:01;96928.14;;;25.83;54.25
52653;BME280;39353;42.864;12.014;2023-06-14T02:11:30;96928.92;;;25.82;54.11
52653;BME280;39353;42.864;12.014;2023-06-14T02:13:59;96930.39;;;25.83;54.15
52653;BME280;39353;42.864;12.014;2023-06-14T02:16:28;96929.45;;;25.83;54.10
52653;BME280;39353;42.864;12.014;2023-06-14T02:19:01;96929.29;;;25.83;54.25
52653;BME280;39353;42.864;12.014;2023-06-14T02:21:35;96925.02;;;25.82;54.06
52653;BME280;39353;42.864;12.014;2023-06-14T02:24:17;96917.66;;;25.82;54.09
52653;BME280;39353;42.864;12.014;2023-06-14T02:26:58;96910.73;;;25.81;54.13
52653;BME280;39353;42.864;12.014;2023-06-14T02:29:42;96908.75;;;25.80;54.20
52653;BME280;39353;42.864;12.014;2023-06-14T02:32:09;96906.45;;;25.80;54.23
52653;BME280;39353;42.864;12.014;2023-06-14T02:34:53;96902.80;;;25.78;54.27
52653;BME280;39353;42.864;12.014;2023-06-14T02:37:35;96894.24;;;25.79;54.34
52653;BME280;39353;42.864;12.014;2023-06-14T02:40:16;96895.61;;;25.80;54.28
52653;BME280;39353;42.864;12.014;2023-06-14T02:42:46;96896.06;;;25.80;54.17
52653;BME280;39353;42.864;12.014;2023-06-14T02:45:29;96891.94;;;25.80;54.14
52653;BME280;39353;42.864;12.014;2023-06-14T02:48:10;96889.46;;;25.80;54.27
52653;BME280;39353;42.864;12.014;2023-06-14T02:50:38;96893.96;;;25.80;54.23
52653;BME280;39353;42.864;12.014;2023-06-14T02:53:09;96892.70;;;25.80;54.24
52653;BME280;39353;42.864;12.014;2023-06-14T02:55:55;96895.83;;;25.79;54.19
52653;BME280;39353;42.864;12.014;2023-06-14T02:58:24;96898.47;;;25.80;54.21
52653;BME280;39353;42.864;12.014;2023-06-14T03:00:54;96902.21;;;25.80;54.24
52653;BME280;39353;42.864;12.014;2023-06-14T03:03:22;96902.71;;;25.79;54.25
52653;BME280;39353;42.864;12.014;2023-06-14T03:05:54;96900.84;;;25.79;54.31
52653;BME280;39353;42.864;12.014;2023-06-14T03:08:28;96899.02;;;25.79;54.22
52653;BME280;39353;42.864;12.014;2023-06-14T03:11:12;96901.65;;;25.79;54.24
52653;BME280;39353;42.864;12.014;2023-06-14T03:13:55;96901.60;;;25.79;54.36
52653;BME280;39353;42.864;12.014;2023-06-14T03:16:24;96901.39;;;25.78;54.28
52653;BME280;39353;42.864;12.014;2023-06-14T03:19:06;96901.33;;;25.78;54.11
52653;BME280;39353;42.864;12.014;2023-06-14T03:21:37;96903.41;;;25.78;54.33
52653;BME280;39353;42.864;12.014;2023-06-14T03:24:35;96904.58;;;25.78;54.29
52653;BME280;39353;42.864;12.014;2023-06-14T03:27:06;96903.02;;;25.78;54.34
52653;BME280;39353;42.864;12.014;2023-06-14T03:29:50;96905.88;;;25.79;54.31
52653;BME280;39353;42.864;12.014;2023-06-14T03:32:18;96906.38;;;25.79;54.34
52653;BME280;39353;42.864;12.014;2023-06-14T03:34:51;96908.64;;;25.80;54.24
52653;BME280;39353;42.864;12.014;2023-06-14T03:37:22;96913.31;;;25.78;54.16
52653;BME280;39353;42.864;12.014;2023-06-14T03:40:09;96917.87;;;25.77;54.33
52653;BME280;39353;42.864;12.014;2023-06-14T03:42:58;96917.54;;;25.77;54.29
52653;BME280;39353;42.864;12.014;2023-06-14T03:45:37;96918.09;;;25.76;54.26
52653;BME280;39353;42.864;12.014;2023-06-14T03:48:06;96924.19;;;25.77;54.39
52653;BME280;39353;42.864;12.014;2023-06-14T03:50:36;96927.32;;;25.77;54.27
52653;BME280;39353;42.864;12.014;2023-06-14T03:53:08;96930.62;;;25.77;54.33
52653;BME280;39353;42.864;12.014;2023-06-14T03:55:41;96930.23;;;25.77;54.26
52653;BME280;39353;42.864;12.014;2023-06-14T03:58:23;96933.03;;;25.76;54.26
52653;BME280;39353;42.864;12.014;2023-06-14T04:01:04;96936.88;;;25.75;54.30
52653;BME280;39353;42.864;12.014;2023-06-14T04:03:35;96936.05;;;25.76;54.30
52653;BME280;39353;42.864;12.014;2023-06-14T04:06:18;96934.62;;;25.75;54.40
52653;BME280;39353;42.864;12.014;2023-06-14T04:09:02;96938.20;;;25.76;54.29
52653;BME280;39353;42.864;12.014;2023-06-14T04:11:33;96933.96;;;25.76;54.30
52653;BME280;39353;42.864;12.014;2023-06-14T04:14:23;96934.02;;;25.75;54.32
52653;BME280;39353;42.864;12.014;2023-06-14T04:16:52;96934.19;;;25.76;54.41
52653;BME280;39353;42.864;12.014;2023-06-14T04:19:34;96938.30;;;25.75;54.35
52653;BME280;39353;42.864;12.014;2023-06-14T04:22:02;96937.05;;;25.75;54.37
52653;BME280;39353;42.864;12.014;2023-06-14T04:24:48;96943.80;;;25.75;54.42
52653;BME280;39353;42.864;12.014;2023-06-14T04:27:19;96943.81;;;25.75;54.43
52653;BME280;39353;42.864;12.014;2023-06-14T04:29:52;96944.85;;;25.74;54.44
52653;BME280;39353;42.864;12.014;2023-06-14T04:32:31;96943.09;;;25.74;54.46
52653;BME280;39353;42.864;12.014;2023-06-14T04:35:00;96944.52;;;25.74;54.26
52653;BME280;39353;42.864;12.014;2023-06-14T04:37:43;96938.03;;;25.74;54.43
52653;BME280;39353;42.864;12.014;2023-06-14T04:40:15;96937.31;;;25.74;54.40
52653;BME280;39353;42.864;12.014;2023-06-14T04:42:46;96939.23;;;25.74;54.33
52653;BME280;39353;42.864;12.014;2023-06-14T04:45:17;96942.82;;;25.74;54.37
52653;BME280;39353;42.864;12.014;2023-06-14T04:48:00;96948.36;;;25.74;54.50
52653;BME280;39353;42.864;12.014;2023-06-14T04:50:41;96949.57;;;25.74;54.46
52653;BME280;39353;42.864;12.014;2023-06-14T04:53:21;96950.02;;;25.73;54.44
52653;BME280;39353;42.864;12.014;2023-06-14T04:56:05;96952.38;;;25.73;54.56
52653;BME280;39353;42.864;12.014;2023-06-14T04:58:48;96953.69;;;25.73;54.54
52653;BME280;39353;42.864;12.014;2023-06-14T05:01:16;96955.66;;;25.73;54.38
52653;BME280;39353;42.864;12.014;2023-06-14T05:03:43;96956.55;;;25.73;54.53
52653;BME280;39353;42.864;12.014;2023-06-14T05:06:34;96955.45;;;25.73;54.48
52653;BME280;39353;42.864;12.014;2023-06-14T05:09:17;96951.88;;;25.73;54.41
52653;BME280;39353;42.864;12.014;2023-06-14T05:11:59;96953.36;;;25.73;54.46
52653;BME280;39353;42.864;12.014;2023-06-14T05:14:41;96950.12;;;25.72;54.54
52653;BME280;39353;42.864;12.014;2023-06-14T05:17:11;96946.16;;;25.73;54.40
52653;BME280;39353;42.864;12.014;2023-06-14T05:19:40;96950.06;;;25.74;54.35
52653;BME280;39353;42.864;12.014;2023-06-14T05:22:08;96950.02;;;25.74;54.52
52653;BME280;39353;42.864;12.014;2023-06-14T05:24:44;96951.83;;;25.74;54.43
52653;BME280;39353;42.864;12.014;2023-06-14T05:27:13;96953.09;;;25.73;54.48
52653;BME280;39353;42.864;12.014;2023-06-14T05:29:43;96946.92;;;25.72;54.45
52653;BME280;39353;42.864;12.014;2023-06-14T05:32:10;96944.52;;;25.73;54.31
52653;BME280;39353;42.864;12.014;2023-06-14T05:34:38;96941.10;;;25.73;54.46
52653;BME280;39353;42.864;12.014;2023-06-14T05:37:25;96938.63;;;25.72;54.49
52653;BME280;39353;42.864;12.014;2023-06-14T05:39:59;96934.73;;;25.71;54.47
52653;BME280;39353;42.864;12.014;2023-06-14T05:42:45;96940.44;;;25.71;54.54
52653;BME280;39353;42.864;12.014;2023-06-14T05:45:15;96934.40;;;25.70;54.51
52653;BME280;39353;42.864;12.014;2023-06-14T05:47:43;96933.30;;;25.70;54.61
52653;BME280;39353;42.864;12.014;2023-06-14T05:50:11;96935.33;;;25.69;54.58
52653;BME280;39353;42.864;12.014;2023-06-14T05:52:40;96932.63;;;25.68;54.56
52653;BME280;39353;42.864;12.014;2023-06-14T05:55:21;96927.80;;;25.67;54.71
52653;BME280;39353;42.864;12.014;2023-06-14T05:57:51;96922.08;;;25.66;54.66
52653;BME280;39353;42.864;12.014;2023-06-14T06:00:21;96927.30;;;25.66;54.63
52653;BME280;39353;42.864;12.014;2023-06-14T06:02:48;96930.81;;;25.66;54.74
52653;BME280;39353;42.864;12.014;2023-06-14T06:05:30;96927.73;;;25.66;54.54
52653;BME280;39353;42.864;12.014;2023-06-14T06:08:12;96932.67;;;25.62;54.40
52653;BME280;39353;42.864;12.014;2023-06-14T06:10:42;96930.48;;;25.46;53.72
52653;BME280;39353;42.864;12.014;2023-06-14T06:13:11;96934.00;;;25.36;54.58
52653;BME280;39353;42.864;12.014;2023-06-14T06:15:59;96938.76;;;25.30;54.58
52653;BME280;39353;42.864;12.014;2023-06-14T06:18:40;96950.02;;;25.29;54.54
52653;BME280;39353;42.864;12.014;2023-06-14T06:21:09;96957.98;;;25.27;54.52
52653;BME280;39353;42.864;12.014;2023-06-14T06:23:50;96956.64;;;25.24;54.55
52653;BME280;39353;42.864;12.014;2023-06-14T06:26:21;96960.86;;;25.23;54.40
52653;BME280;39353;42.864;12.014;2023-06-14T06:28:50;96968.66;;;25.22;54.53
52653;BME280;39353;42.864;12.014;2023-06-14T06:31:33;96974.69;;;25.21;54.60
52653;BME280;39353;42.864;12.014;2023-06-14T06:34:00;96978.15;;;25.22;54.79
52653;BME280;39353;42.864;12.014;2023-06-14T06:36:41;96981.19;;;25.25;54.70
52653;BME280;39353;42.864;12.014;2023-06-14T06:39:10;96984.83;;;25.28;54.83
52653;BME280;39353;42.864;12.014;2023-06-14T06:41:52;96983.58;;;25.33;54.76
52653;BME280;39353;42.864;12.014;2023-06-14T06:44:27;96982.17;;;25.39;54.79
52653;BME280;39353;42.864;12.014;2023-06-14T06:47:05;96981.10;;;25.42;54.81
52653;BME280;39353;42.864;12.014;2023-06-14T06:49:34;96981.74;;;25.40;54.78
52653;BME280;39353;42.864;12.014;2023-06-14T06:52:05;96984.15;;;25.40;54.83
52653;BME280;39353;42.864;12.014;2023-06-14T06:54:34;96986.31;;;25.40;54.97
52653;BME280;39353;42.864;12.014;2023-06-14T06:57:02;96981.53;;;25.41;55.02
52653;BME280;39353;42.864;12.014;2023-06-14T06:59:44;96978.29;;;25.47;54.90
52653;BME280;39353;42.864;12.014;2023-06-14T07:02:11;96981.05;;;25.51;54.86
52653;BME280;39353;42.864;12.014;2023-06-14T07:04:52;96985.01;;;25.53;54.95
52653;BME280;39353;42.864;12.014;2023-06-14T07:07:19;96985.72;;;25.52;54.79
52653;BME280;39353;42.864;12.014;2023-06-14T07:09:47;96989.59;;;25.46;54.85
52653;BME280;39353;42.864;12.014;2023-06-14T07:12:29;96997.05;;;25.36;54.93
52653;BME280;39353;42.864;12.014;2023-06-14T07:14:58;96992.59;;;25.29;55.10
52653;BME280;39353;42.864;12.014;2023-06-14T07:17:26;96989.83;;;25.28;55.17
52653;BME280;39353;42.864;12.014;2023-06-14T07:20:08;96992.67;;;25.30;55.22
52653;BME280;39353;42.864;12.014;2023-06-14T07:22:42;96989.07;;;25.29;55.15
52653;BME280;39353;42.864;12.014;2023-06-14T07:25:12;96984.17;;;25.28;55.13
52653;BME280;39353;42.864;12.014;2023-06-14T07:27:55;96983.70;;;25.22;55.37
52653;BME280;39353;42.864;12.014;2023-06-14T07:30:23;96980.82;;;25.17;55.66
52653;BME280;39353;42.864;12.014;2023-06-14T07:33:07;96982.50;;;25.13;55.78
52653;BME280;39353;42.864;12.014;2023-06-14T07:35:49;96983.48;;;25.11;55.96
52653;BME280;39353;42.864;12.014;2023-06-14T07:38:30;96979.30;;;25.09;55.81
52653;BME280;39353;42.864;12.014;2023-06-14T07:41:12;96976.34;;;25.11;55.75
52653;BME280;39353;42.864;12.014;2023-06-14T07:43:54;96979.70;;;25.11;55.96
52653;BME280;39353;42.864;12.014;2023-06-14T07:46:36;96980.30;;;25.13;56.10
52653;BME280;39353;42.864;12.014;2023-06-14T07:49:09;96978.98;;;25.13;56.71
52653;BME280;39353;42.864;12.014;2023-06-14T07:51:37;96977.73;;;25.14;57.95
52653;BME280;39353;42.864;12.014;2023-06-14T07:54:20;96972.03;;;25.17;57.66
52653;BME280;39353;42.864;12.014;2023-06-14T07:56:52;96972.88;;;25.20;57.34
52653;BME280;39353;42.864;12.014;2023-06-14T07:59:26;96974.46;;;25.21;57.72
52653;BME280;39353;42.864;12.014;2023-06-14T08:01:54;96979.47;;;25.23;58.10
52653;BME280;39353;42.864;12.014;2023-06-14T08:04:35;96978.98;;;25.23;57.45
52653;BME280;39353;42.864;12.014;2023-06-14T08:07:04;96979.49;;;25.26;57.13
52653;BME280;39353;42.864;12.014;2023-06-14T08:09:32;96979.94;;;25.28;57.10
52653;BME280;39353;42.864;12.014;2023-06-14T08:12:00;96976.21;;;25.32;57.03
52653;BME280;39353;42.864;12.014;2023-06-14T08:14:42;96975.44;;;25.32;56.41
52653;BME280;39353;42.864;12.014;2023-06-14T08:17:10;96974.63;;;25.28;56.01
52653;BME280;39353;42.864;12.014;2023-06-14T08:19:51;96973.50;;;25.24;56.23
52653;BME280;39353;42.864;12.014;2023-06-14T08:22:18;96972.89;;;25.23;56.36
52653;BME280;39353;42.864;12.014;2023-06-14T08:24:46;96969.57;;;25.19;56.34
52653;BME280;39353;42.864;12.014;2023-06-14T08:27:16;96969.83;;;25.14;56.57
52653;BME280;39353;42.864;12.014;2023-06-14T08:29:44;96973.16;;;25.11;56.24
52653;BME280;39353;42.864;12.014;2023-06-14T08:32:27;96975.13;;;25.10;56.01
52653;BME280;39353;42.864;12.014;2023-06-14T08:34:56;96977.27;;;25.11;56.18
52653;BME280;39353;42.864;12.014;2023-06-14T08:37:23;96974.25;;;25.10;56.76
52653;BME280;39353;42.864;12.014;2023-06-14T08:39:52;96976.20;;;25.06;56.88
52653;BME280;39353;42.864;12.014;2023-06-14T08:42:37;96970.70;;;25.00;56.68
52653;BME280;39353;42.864;12.014;2023-06-14T08:45:23;96971.21;;;24.95;56.94
52653;BME280;39353;42.864;12.014;2023-06-14T08:47:53;96970.66;;;24.95;56.54
52653;BME280;39353;42.864;12.014;2023-06-14T08:50:44;96968.51;;;24.93;56.48
52653;BME280;39353;42.864;12.014;2023-06-14T08:53:44;96967.34;;;24.91;57.00
52653;BME280;39353;42.864;12.014;2023-06-14T08:59:53;96967.39;;;24.88;56.78
52653;BME280;39353;42.864;12.014;2023-06-14T09:02:40;96964.59;;;24.89;56.17
52653;BME280;39353;42.864;12.014;2023-06-14T09:05:28;96966.19;;;24.89;56.16
52653;BME280;39353;42.864;12.014;2023-06-14T09:08:15;96965.37;;;24.92;56.15
52653;BME280;39353;42.864;12.014;2023-06-14T09:10:46;96966.93;;;24.95;56.29
52653;BME280;39353;42.864;12.014;2023-06-14T09:13:52;96970.67;;;24.97;56.20
52653;BME280;39353;42.864;12.014;2023-06-14T09:16:38;96976.39;;;24.97;55.95
52653;BME280;39353;42.864;12.014;2023-06-14T09:20:01;96977.91;;;24.95;55.90
52653;BME280;39353;42.864;12.014;2023-06-14T09:22:51;96970.82;;;24.95;55.76
52653;BME280;39353;42.864;12.014;2023-06-14T09:25:20;96967.11;;;24.98;55.59
52653;BME280;39353;42.864;12.014;2023-06-14T09:28:01;96959.81;;;24.99;55.47
52653;BME280;39353;42.864;12.014;2023-06-14T09:30:47;96956.64;;;24.99;55.48
52653;BME280;39353;42.864;12.014;2023-06-14T09:33:30;96952.46;;;25.00;55.56
52653;BME280;39353;42.864;12.014;2023-06-14T09:36:24;96952.96;;;25.01;55.54
52653;BME280;39353;42.864;12.014;2023-06-14T09:39:28;96945.61;;;25.03;55.13
52653;BME280;39353;42.864;12.014;2023-06-14T09:42:18;96945.95;;;25.07;54.98
52653;BME280;39353;42.864;12.014;2023-06-14T09:44:49;96945.20;;;25.08;54.92
52653;BME280;39353;42.864;12.014;2023-06-14T09:47:50;96942.36;;;25.11;55.10
52653;BME280;39353;42.864;12.014;2023-06-14T09:50:17;96938.41;;;25.13;55.03
52653;BME280;39353;42.864;12.014;2023-06-14T09:53:06;96941.08;;;25.17;54.90
52653;BME280;39353;42.864;12.014;2023-06-14T09:55:54;96945.09;;;25.21;54.94
52653;BME280;39353;42.864;12.014;2023-06-14T09:58:26;96942.29;;;25.22;54.83
52653;BME280;39353;42.864;12.014;2023-06-14T10:04:16;96937.85;;;25.22;54.76
52653;BME280;39353;42.864;12.014;2023-06-14T10:07:30;96944.15;;;25.19;54.89
52653;BME280;39353;42.864;12.014;2023-06-14T10:10:17;96945.84;;;25.18;55.00
52653;BME280;39353;42.864;12.014;2023-06-14T10:13:26;96952.13;;;25.22;54.69
52653;BME280;39353;42.864;12.014;2023-06-14T10:22:47;96960.02;;;25.27;54.78
52653;BME280;39353;42.864;12.014;2023-06-14T10:25:42;96961.70;;;25.27;54.96
52653;BME280;39353;42.864;12.014;2023-06-14T10:32:31;96956.58;;;25.23;55.24
52653;BME280;39353;42.864;12.014;2023-06-14T10:35:01;96967.79;;;25.24;55.27
52653;BME280;39353;42.864;12.014;2023-06-14T10:37:46;96973.41;;;25.28;55.16
52653;BME280;39353;42.864;12.014;2023-06-14T10:40:30;96983.63;;;25.30;55.47
52653;BME280;39353;42.864;12.014;2023-06-14T10:43:23;96995.00;;;25.34;55.36
52653;BME280;39353;42.864;12.014;2023-06-14T10:52:28;97000.05;;;25.29;56.77
52653;BME280;39353;42.864;12.014;2023-06-14T11:00:48;97010.98;;;25.41;57.75
52653;BME280;39353;42.864;12.014;2023-06-14T11:13:07;96982.98;;;25.53;58.03
52653;BME280;39353;42.864;12.014;2023-06-14T11:15:37;96980.61;;;25.51;56.55
52653;BME280;39353;42.864;12.014;2023-06-14T11:18:24;96988.73;;;25.49;58.30
52653;BME280;39353;42.864;12.014;2023-06-14T11:20:52;96989.93;;;25.48;58.39
52653;BME280;39353;42.864;12.014;2023-06-14T11:23:20;96988.11;;;25.46;57.23
52653;BME280;39353;42.864;12.014;2023-06-14T11:25:52;96985.79;;;25.44;56.99
52653;BME280;39353;42.864;12.014;2023-06-14T11:28:38;96987.55;;;25.44;57.18
52653;BME280;39353;42.864;12.014;2023-06-14T11:31:26;96988.23;;;25.42;57.19
52653;BME280;39353;42.864;12.014;2023-06-14T11:33:58;96990.80;;;25.38;56.96
52653;BME280;39353;42.864;12.014;2023-06-14T11:36:59;96990.06;;;25.34;56.93
52653;BME280;39353;42.864;12.014;2023-06-14T11:39:45;96984.23;;;25.32;56.92
52653;BME280;39353;42.864;12.014;2023-06-14T11:43:04;96980.48;;;25.30;56.98
52653;BME280;39353;42.864;12.014;2023-06-14T11:46:04;96979.83;;;25.28;56.40
52653;BME280;39353;42.864;12.014;2023-06-14T11:51:55;96974.36;;;25.21;56.68
52653;BME280;39353;42.864;12.014;2023-06-14T11:54:41;96975.58;;;25.11;56.46
52653;BME280;39353;42.864;12.014;2023-06-14T12:00:11;96964.73;;;24.87;56.74
52653;BME280;39353;42.864;12.014;2023-06-14T12:02:52;96958.88;;;24.80;57.07
52653;BME280;39353;42.864;12.014;2023-06-14T12:06:12;96951.89;;;24.73;57.41
52653;BME280;39353;42.864;12.014;2023-06-14T12:08:59;96944.63;;;24.68;57.14
52653;BME280;39353;42.864;12.014;2023-06-14T12:11:33;96946.13;;;24.64;57.19
52653;BME280;39353;42.864;12.014;2023-06-14T12:16:51;96939.70;;;24.53;57.62
52653;BME280;39353;42.864;12.014;2023-06-14T12:28:56;96942.98;;;24.44;58.13
52653;BME280;39353;42.864;12.014;2023-06-14T12:31:42;96946.82;;;24.43;57.81
52653;BME280;39353;42.864;12.014;2023-06-14T12:34:28;96950.05;;;24.42;58.16
52653;BME280;39353;42.864;12.014;2023-06-14T12:36:57;96953.83;;;24.41;58.06
52653;BME280;39353;42.864;12.014;2023-06-14T12:39:44;96950.46;;;24.39;58.07
52653;BME280;39353;42.864;12.014;2023-06-14T12:42:30;96944.84;;;24.41;57.91
52653;BME280;39353;42.864;12.014;2023-06-14T12:44:57;96941.42;;;24.41;57.87
52653;BME280;39353;42.864;12.014;2023-06-14T12:51:00;96943.50;;;24.40;58.62
52653;BME280;39353;42.864;12.014;2023-06-14T12:54:05;96943.33;;;24.39;58.79
52653;BME280;39353;42.864;12.014;2023-06-14T12:56:51;96947.92;;;24.36;59.32
52653;BME280;39353;42.864;12.014;2023-06-14T12:59:51;96949.77;;;24.35;59.39
52653;BME280;39353;42.864;12.014;2023-06-14T13:02:32;96951.75;;;24.34;59.22
52653;BME280;39353;42.864;12.014;2023-06-14T13:05:54;96952.77;;;24.33;59.19
52653;BME280;39353;42.864;12.014;2023-06-14T13:08:40;96952.22;;;24.33;59.01
52653;BME280;39353;42.864;12.014;2023-06-14T13:11:26;96950.83;;;24.35;58.99
52653;BME280;39353;42.864;12.014;2023-06-14T13:13:55;96949.67;;;24.37;59.06
52653;BME280;39353;42.864;12.014;2023-06-14T13:16:55;96956.51;;;24.40;59.02
52653;BME280;39353;42.864;12.014;2023-06-14T13:19:37;96954.98;;;24.42;59.07
52653;BME280;39353;42.864;12.014;2023-06-14T13:22:04;96957.88;;;24.40;58.87
52653;BME280;39353;42.864;12.014;2023-06-14T13:24:32;96958.07;;;24.39;58.71
52653;BME280;39353;42.864;12.014;2023-06-14T13:27:36;96958.05;;;24.41;58.19
52653;BME280;39353;42.864;12.014;2023-06-14T13:30:04;96954.65;;;24.42;57.80
52653;BME280;39353;42.864;12.014;2023-06-14T13:32:50;96961.67;;;24.43;57.72
52653;BME280;39353;42.864;12.014;2023-06-14T13:36:08;96956.59;;;24.43;57.81
52653;BME280;39353;42.864;12.014;2023-06-14T13:39:27;96963.09;;;24.41;57.87
52653;BME280;39353;42.864;12.014;2023-06-14T13:42:08;96964.77;;;24.39;57.85
52653;BME280;39353;42.864;12.014;2023-06-14T13:44:35;96965.26;;;24.38;57.65
52653;BME280;39353;42.864;12.014;2023-06-14T13:47:18;96960.67;;;24.41;57.39
52653;BME280;39353;42.864;12.014;2023-06-14T13:49:45;96963.67;;;24.45;57.40
52653;BME280;39353;42.864;12.014;2023-06-14T13:58:38;96975.30;;;24.39;58.33
52653;BME280;39353;42.864;12.014;2023-06-14T14:01:23;96974.45;;;24.40;58.01
52653;BME280;39353;42.864;12.014;2023-06-14T14:04:11;96976.27;;;24.43;58.00
52653;BME280;39353;42.864;12.014;2023-06-14T14:09:45;96974.52;;;24.49;58.43
52653;BME280;39353;42.864;12.014;2023-06-14T14:13:07;96982.56;;;24.49;58.03
52653;BME280;39353;42.864;12.014;2023-06-14T14:16:07;96977.11;;;24.45;57.77
52653;BME280;39353;42.864;12.014;2023-06-14T14:24:37;96985.68;;;24.41;57.71
52653;BME280;39353;42.864;12.014;2023-06-14T14:27:05;96986.44;;;24.40;57.37
52653;BME280;39353;42.864;12.014;2023-06-14T14:30:06;96981.75;;;24.36;57.08
52653;BME280;39353;42.864;12.014;2023-06-14T14:32:47;96983.02;;;24.36;56.80
52653;BME280;39353;42.864;12.014;2023-06-14T14:35:16;96983.02;;;24.39;56.90
52653;BME280;39353;42.864;12.014;2023-06-14T14:38:02;96975.81;;;24.46;56.89
52653;BME280;39353;42.864;12.014;2023-06-14T14:40:30;96975.88;;;24.49;56.61
52653;BME280;39353;42.864;12.014;2023-06-14T14:43:34;96974.36;;;24.43;56.73
52653;BME280;39353;42.864;12.014;2023-06-14T14:46:20;96975.79;;;24.39;57.20
52653;BME280;39353;42.864;12.014;2023-06-14T14:48:50;96975.76;;;24.33;57.47
52653;BME280;39353;42.864;12.014;2023-06-14T14:51:32;96970.69;;;24.24;58.27
52653;BME280;39353;42.864;12.014;2023-06-14T14:53:59;96968.48;;;24.21;58.50
52653;BME280;39353;42.864;12.014;2023-06-14T14:56:27;96971.05;;;24.22;58.74
52653;BME280;39353;42.864;12.014;2023-06-14T14:58:54;96972.81;;;24.23;58.92
52653;BME280;39353;42.864;12.014;2023-06-14T15:01:58;96977.42;;;24.24;58.81
52653;BME280;39353;42.864;12.014;2023-06-14T15:04:29;96976.02;;;24.27;58.94
52653;BME280;39353;42.864;12.014;2023-06-14T15:07:14;96976.77;;;24.30;58.67
52653;BME280;39353;42.864;12.014;2023-06-14T15:10:01;96978.27;;;24.32;58.64